Time;durP1;ratioP1;P1;durP2;ratioP2;P2;SDS_P1;SDS_P2;PMS_P1;PMS_P2;Temp;Humidity;BMP_temperature;BMP_pressure;BME280_temperature;BME280_humidity;BME280_pressure;Samples;Min_cycle;Max_cycle;Signal;HPM_P1;HPM_P2
2023/06/01 00:02:25;0.00;0.00;0.62;0.00;0.00;0.62;2.57;2.37;;;27.80;23.70;;;;;;2260584;61;20543;-69
2023/06/01 00:05:12;0.00;0.00;0.62;0.00;0.00;0.62;2.70;2.30;;;27.70;23.70;;;;;;2260618;61;20927;-69
2023/06/01 00:07:56;0.00;0.00;0.62;0.00;0.00;0.62;2.63;2.00;;;27.70;23.70;;;;;;2260853;61;20414;-70
2023/06/01 00:10:41;0.00;0.00;0.62;0.00;0.00;0.62;2.60;2.30;;;27.70;23.70;;;;;;2260514;61;20431;-69
2023/06/01 00:13:25;0.00;0.00;0.62;0.00;0.00;0.62;3.73;2.40;;;27.70;23.70;;;;;;2260160;61;20368;-68
2023/06/01 00:16:10;0.00;0.00;0.62;0.00;0.00;0.62;2.43;2.10;;;27.70;23.70;;;;;;2260354;61;20443;-68
2023/06/01 00:18:55;0.00;0.00;0.62;0.00;0.00;0.62;2.63;2.13;;;27.70;23.70;;;;;;2260621;61;20365;-69
2023/06/01 00:21:42;0.00;0.00;0.62;0.00;0.00;0.62;3.40;1.90;;;27.70;23.70;;;;;;2259963;61;20420;-70
2023/06/01 00:24:26;0.00;0.00;0.62;0.00;0.00;0.62;4.33;2.37;;;27.70;23.70;;;;;;2260379;61;20380;-69
2023/06/01 00:27:11;0.00;0.00;0.62;0.00;0.00;0.62;3.53;2.30;;;27.70;23.70;;;;;;2260496;61;20364;-69
2023/06/01 00:29:56;0.00;0.00;0.62;0.00;0.00;0.62;2.60;1.90;;;27.60;23.60;;;;;;2260731;61;20365;-69
2023/06/01 00:32:40;0.00;0.00;0.62;0.00;0.00;0.62;2.70;2.50;;;27.70;23.70;;;;;;2257475;61;20403;-68
2023/06/01 00:35:25;0.00;0.00;0.62;0.00;0.00;0.62;2.40;1.80;;;27.60;23.60;;;;;;2260449;61;20467;-69
2023/06/01 00:38:11;0.00;0.00;0.62;0.00;0.00;0.62;4.03;2.40;;;27.60;23.60;;;;;;2260585;61;20411;-68
2023/06/01 00:40:55;0.00;0.00;0.62;0.00;0.00;0.62;3.37;2.23;;;27.60;23.60;;;;;;2259654;61;20415;-68
2023/06/01 00:43:40;0.00;0.00;0.62;0.00;0.00;0.62;3.17;2.30;;;27.60;23.60;;;;;;2260552;61;20884;-69
2023/06/01 00:46:25;0.00;0.00;0.62;0.00;0.00;0.62;3.40;2.13;;;27.60;24.20;;;;;;2260878;61;20377;-71
2023/06/01 00:49:10;0.00;0.00;0.62;0.00;0.00;0.62;3.77;2.53;;;27.60;23.60;;;;;;2260140;61;20404;-69
2023/06/01 00:51:55;0.00;0.00;0.62;0.00;0.00;0.62;3.70;2.00;;;27.60;23.60;;;;;;2260144;61;20392;-67
2023/06/01 00:54:41;0.00;0.00;0.62;0.00;0.00;0.62;3.70;2.20;;;27.60;23.60;;;;;;2260318;61;20789;-68
2023/06/01 00:57:28;0.00;0.00;0.62;0.00;0.00;0.62;2.90;2.13;;;27.50;23.60;;;;;;2260451;61;20403;-69
2023/06/01 01:00:14;0.00;0.00;0.62;0.00;0.00;0.62;3.53;2.40;;;27.60;23.60;;;;;;2260375;61;20368;-68
2023/06/01 01:03:07;0.00;0.00;0.62;0.00;0.00;0.62;2.97;2.13;;;27.50;23.60;;;;;;2260660;61;20822;-69
2023/06/01 01:06:00;0.00;0.00;0.62;0.00;0.00;0.62;3.00;1.97;;;27.50;23.60;;;;;;2260700;61;20408;-69
2023/06/01 01:09:10;0.00;0.00;0.62;0.00;0.00;0.62;2.97;1.87;;;27.50;23.60;;;;;;2260725;61;20357;-69
2023/06/01 01:12:03;0.00;0.00;0.62;0.00;0.00;0.62;3.60;2.70;;;27.50;23.60;;;;;;2259657;61;20921;-69
2023/06/01 01:14:57;0.00;0.00;0.62;0.00;0.00;0.62;3.80;2.07;;;27.50;23.60;;;;;;2260184;61;20531;-68
2023/06/01 01:17:45;0.00;0.00;0.62;0.00;0.00;0.62;2.63;2.27;;;27.50;23.60;;;;;;2260115;61;20761;-69
2023/06/01 01:20:38;0.00;0.00;0.62;0.00;0.00;0.62;3.23;2.50;;;27.50;23.60;;;;;;2259923;61;20381;-68
2023/06/01 01:23:48;0.00;0.00;0.62;0.00;0.00;0.62;3.47;1.97;;;27.50;23.60;;;;;;2260072;61;20372;-69
2023/06/01 01:26:56;0.00;0.00;0.62;0.00;0.00;0.62;2.73;1.93;;;27.50;23.60;;;;;;2259847;61;20404;-68
2023/06/01 01:29:45;0.00;0.00;0.62;0.00;0.00;0.62;4.00;2.40;;;27.50;23.60;;;;;;2260409;61;20389;-70
2023/06/01 01:32:31;0.00;0.00;0.62;0.00;0.00;0.62;2.60;1.93;;;27.50;23.60;;;;;;2259998;61;20385;-71
2023/06/01 01:35:16;0.00;0.00;0.62;0.00;0.00;0.62;2.60;2.00;;;27.40;23.50;;;;;;2260354;61;20396;-72
2023/06/01 01:38:02;0.00;0.00;0.62;0.00;0.00;0.62;3.50;1.97;;;27.40;23.50;;;;;;2260562;61;20881;-69
2023/06/01 01:40:46;0.00;0.00;0.62;0.00;0.00;0.62;2.33;1.80;;;27.40;23.50;;;;;;2259658;61;20385;-68
2023/06/01 01:43:31;0.00;0.00;0.62;0.00;0.00;0.62;2.83;2.40;;;27.40;23.50;;;;;;2260158;61;20435;-71
2023/06/01 01:46:26;0.00;0.00;0.62;0.00;0.00;0.62;3.00;2.30;;;27.40;23.50;;;;;;2260666;61;20342;-69
2023/06/01 01:49:26;0.00;0.00;0.62;0.00;0.00;0.62;2.97;2.27;;;27.40;23.50;;;;;;2259917;61;20798;-68
2023/06/01 01:52:17;0.00;0.00;0.62;0.00;0.00;0.62;2.50;2.00;;;27.40;23.50;;;;;;2259903;61;20423;-69
2023/06/01 01:55:04;0.00;0.00;0.62;0.00;0.00;0.62;2.83;2.17;;;27.40;23.50;;;;;;2260470;61;20917;-69
2023/06/01 01:57:49;0.00;0.00;0.62;0.00;0.00;0.62;2.63;1.90;;;27.30;23.50;;;;;;2259993;61;20403;-68
2023/06/01 02:00:35;0.00;0.00;0.62;0.00;0.00;0.62;2.63;2.00;;;27.30;23.50;;;;;;2259706;61;20385;-69
2023/06/01 02:03:21;0.00;0.00;0.62;0.00;0.00;0.62;3.37;2.43;;;27.30;23.50;;;;;;2260371;61;20449;-68
2023/06/01 02:06:06;0.00;0.00;0.62;0.00;0.00;0.62;3.20;2.00;;;27.30;23.50;;;;;;2260046;61;20361;-69
2023/06/01 02:08:50;0.00;0.00;0.62;0.00;0.00;0.62;2.83;1.77;;;27.30;23.50;;;;;;2260486;61;20365;-69
2023/06/01 02:11:38;0.00;0.00;0.62;0.00;0.00;0.62;3.10;2.10;;;27.30;24.00;;;;;;2259513;61;20384;-69
2023/06/01 02:14:23;0.00;0.00;0.62;0.00;0.00;0.62;3.10;2.50;;;27.30;23.50;;;;;;2260425;61;20365;-68
2023/06/01 02:17:08;0.00;0.00;0.62;0.00;0.00;0.62;4.03;1.60;;;27.30;23.50;;;;;;2260328;61;20419;-68
2023/06/01 02:19:54;0.00;0.00;0.62;0.00;0.00;0.62;2.30;1.80;;;27.30;23.50;;;;;;2259967;61;20365;-68
2023/06/01 02:22:39;0.00;0.00;0.62;0.00;0.00;0.62;2.73;1.90;;;27.30;23.50;;;;;;2259914;61;20891;-69
2023/06/01 02:25:26;0.00;0.00;0.62;0.00;0.00;0.62;3.10;2.40;;;27.30;23.50;;;;;;2260152;61;20353;-69
2023/06/01 02:28:11;0.00;0.00;0.62;0.00;0.00;0.62;2.80;2.07;;;27.20;23.40;;;;;;2259906;61;20396;-69
2023/06/01 02:30:55;0.00;0.00;0.62;0.00;0.00;0.62;3.03;2.23;;;27.30;23.50;;;;;;2259408;61;20427;-69
2023/06/01 02:33:40;0.00;0.00;0.62;0.00;0.00;0.62;4.10;2.43;;;27.30;23.50;;;;;;2260117;61;20365;-68
2023/06/01 02:36:28;0.00;0.00;0.62;0.00;0.00;0.62;3.13;2.40;;;27.30;23.50;;;;;;2259991;61;20381;-68
2023/06/01 02:39:14;0.00;0.00;0.62;0.00;0.00;0.62;2.53;2.20;;;27.20;23.40;;;;;;2259902;61;20415;-68
2023/06/01 02:41:59;0.00;0.00;0.62;0.00;0.00;0.62;2.97;2.30;;;27.20;23.40;;;;;;2259680;61;20384;-69
2023/06/01 02:44:44;0.00;0.00;0.62;0.00;0.00;0.62;3.60;2.20;;;27.20;23.40;;;;;;2260341;61;20365;-69
2023/06/01 02:47:29;0.00;0.00;0.62;0.00;0.00;0.62;2.73;1.97;;;27.20;23.40;;;;;;2259673;61;20860;-68
2023/06/01 02:50:13;0.00;0.00;0.62;0.00;0.00;0.62;2.57;2.00;;;27.20;23.40;;;;;;2260334;61;20356;-68
2023/06/01 02:53:05;0.00;0.00;0.62;0.00;0.00;0.62;3.80;2.03;;;27.10;23.40;;;;;;2259798;61;20418;-67
2023/06/01 02:55:50;0.00;0.00;0.62;0.00;0.00;0.62;2.60;2.20;;;27.20;23.40;;;;;;2259748;61;20384;-69
2023/06/01 02:58:41;0.00;0.00;0.62;0.00;0.00;0.62;2.90;2.30;;;27.20;23.40;;;;;;2260353;61;20438;-67
2023/06/01 03:01:44;0.00;0.00;0.62;0.00;0.00;0.62;3.10;2.43;;;27.10;23.40;;;;;;2259203;61;20434;-69
2023/06/01 03:04:32;0.00;0.00;0.62;0.00;0.00;0.62;3.20;2.37;;;27.10;23.40;;;;;;2260450;61;20368;-69
2023/06/01 03:07:17;0.00;0.00;0.62;0.00;0.00;0.62;3.07;2.03;;;27.10;23.40;;;;;;2259915;61;20900;-69
2023/06/01 03:10:10;0.00;0.00;0.62;0.00;0.00;0.62;3.50;2.00;;;27.10;23.40;;;;;;2259762;61;20404;-68
2023/06/01 03:13:23;0.00;0.00;0.62;0.00;0.00;0.62;3.03;2.10;;;27.10;23.40;;;;;;2260255;61;20357;-68
2023/06/01 03:16:08;0.00;0.00;0.62;0.00;0.00;0.62;2.80;2.30;;;27.10;23.40;;;;;;2260164;61;20868;-69
2023/06/01 03:18:55;0.00;0.00;0.62;0.00;0.00;0.62;3.50;2.20;;;27.10;23.90;;;;;;2259887;61;20443;-70
2023/06/01 03:21:40;0.00;0.00;0.62;0.00;0.00;0.62;3.13;2.43;;;27.10;23.40;;;;;;2259845;61;20379;-69
2023/06/01 03:24:27;0.00;0.00;0.62;0.00;0.00;0.62;2.60;2.00;;;27.00;23.30;;;;;;2259703;61;20384;-69
2023/06/01 03:27:16;0.00;0.00;0.62;0.00;0.00;0.62;3.10;2.40;;;27.00;23.30;;;;;;2259880;61;20389;-68
2023/06/01 03:30:02;0.00;0.00;0.62;0.00;0.00;0.62;3.23;2.27;;;27.00;23.30;;;;;;2260466;61;20369;-67
2023/06/01 03:32:47;0.00;0.00;0.62;0.00;0.00;0.62;3.23;2.13;;;27.00;23.30;;;;;;2259465;61;20376;-67
2023/06/01 03:35:31;0.00;0.00;0.62;0.00;0.00;0.62;3.20;2.20;;;27.00;23.30;;;;;;2257036;61;20393;-68
2023/06/01 03:38:17;0.00;0.00;0.62;0.00;0.00;0.62;3.13;2.20;;;27.00;23.30;;;;;;2259967;61;20410;-68
2023/06/01 03:41:02;0.00;0.00;0.62;0.00;0.00;0.62;3.63;2.30;;;27.00;23.30;;;;;;2260283;61;20665;-68
2023/06/01 03:43:48;0.00;0.00;0.62;0.00;0.00;0.62;4.33;2.90;;;27.00;23.30;;;;;;2259877;61;20403;-68
2023/06/01 03:46:33;0.00;0.00;0.62;0.00;0.00;0.62;5.63;2.50;;;27.00;23.30;;;;;;2259807;61;20361;-68
2023/06/01 03:49:18;0.00;0.00;0.62;0.00;0.00;0.62;5.70;2.97;;;27.00;23.30;;;;;;2260058;61;20365;-68
2023/06/01 03:52:04;0.00;0.00;0.62;0.00;0.00;0.62;4.83;2.50;;;27.00;23.30;;;;;;2259642;61;20853;-68
2023/06/01 03:54:52;0.00;0.00;0.62;0.00;0.00;0.62;2.60;2.40;;;27.00;23.30;;;;;;2259426;61;20388;-68
2023/06/01 03:58:02;0.00;0.00;0.62;0.00;0.00;0.62;2.87;2.50;;;27.00;23.30;;;;;;2259988;61;20671;-71
2023/06/01 04:00:49;0.00;0.00;0.62;0.00;0.00;0.62;2.70;2.37;;;26.90;23.30;;;;;;2259347;61;20393;-68
2023/06/01 04:03:33;0.00;0.00;0.62;0.00;0.00;0.62;2.80;2.00;;;26.90;23.30;;;;;;2259944;61;20365;-69
2023/06/01 04:06:18;0.00;0.00;0.62;0.00;0.00;0.62;3.20;2.03;;;26.90;23.30;;;;;;2259710;61;20965;-68
2023/06/01 04:09:09;0.00;0.00;0.62;0.00;0.00;0.62;3.73;2.83;;;26.90;23.30;;;;;;2259532;61;20872;-68
2023/06/01 04:11:54;0.00;0.00;0.62;0.00;0.00;0.62;3.90;2.50;;;26.90;23.30;;;;;;2259236;61;20963;-69
2023/06/01 04:14:39;0.00;0.00;0.62;0.00;0.00;0.62;3.43;2.17;;;26.90;23.30;;;;;;2259774;61;20457;-68
2023/06/01 04:17:26;0.00;0.00;0.62;0.00;0.00;0.62;2.97;2.07;;;26.80;23.20;;;;;;2259362;61;20912;-68
2023/06/01 04:20:13;0.00;0.00;0.62;0.00;0.00;0.62;2.90;2.23;;;26.80;23.20;;;;;;2259635;61;20442;-68
2023/06/01 04:22:59;0.00;0.00;0.62;0.00;0.00;0.62;3.03;2.47;;;26.80;23.20;;;;;;2259821;61;20361;-67
2023/06/01 04:25:44;0.00;0.00;0.62;0.00;0.00;0.62;3.33;2.60;;;26.80;23.20;;;;;;2260480;61;20373;-68
2023/06/01 04:28:35;0.00;0.00;0.62;0.00;0.00;0.62;3.27;2.20;;;26.80;23.20;;;;;;2260432;61;20361;-69
2023/06/01 04:31:20;0.00;0.00;0.62;0.00;0.00;0.62;5.07;3.80;;;26.80;23.20;;;;;;2260096;61;20381;-68
2023/06/01 04:34:09;0.00;0.00;0.62;0.00;0.00;0.62;4.37;2.53;;;26.80;23.20;;;;;;2260122;61;20361;-69
2023/06/01 04:36:55;0.00;0.00;0.62;0.00;0.00;0.62;2.63;2.10;;;26.80;23.20;;;;;;2260427;61;20404;-69
2023/06/01 04:39:42;0.00;0.00;0.62;0.00;0.00;0.62;4.43;2.90;;;26.80;23.20;;;;;;2260263;61;20396;-72
2023/06/01 04:42:30;0.00;0.00;0.62;0.00;0.00;0.62;3.30;2.40;;;26.80;23.20;;;;;;2260119;61;20379;-68
2023/06/01 04:45:15;0.00;0.00;0.62;0.00;0.00;0.62;2.83;2.17;;;26.80;23.20;;;;;;2259983;61;20415;-67
2023/06/01 04:48:01;0.00;0.00;0.62;0.00;0.00;0.62;3.40;2.20;;;26.80;23.20;;;;;;2257522;61;20408;-68
2023/06/01 04:50:57;0.00;0.00;0.62;0.00;0.00;0.62;3.03;2.30;;;26.80;23.20;;;;;;2260395;61;20431;-68
2023/06/01 04:53:43;0.00;0.00;0.62;0.00;0.00;0.62;3.57;2.20;;;26.80;23.70;;;;;;2260015;61;20369;-73
2023/06/01 04:56:28;0.00;0.00;0.62;0.00;0.00;0.62;2.73;2.03;;;26.80;23.70;;;;;;2260185;61;20396;-70
2023/06/01 04:59:13;0.00;0.00;0.62;0.00;0.00;0.62;3.17;2.40;;;26.70;23.20;;;;;;2260402;61;20365;-68
2023/06/01 05:01:57;0.00;0.00;0.62;0.00;0.00;0.62;2.73;2.20;;;26.70;23.20;;;;;;2260299;61;20427;-68
2023/06/01 05:04:42;0.00;0.00;0.62;0.00;0.00;0.62;3.17;2.40;;;26.70;23.20;;;;;;2260337;61;20365;-67
2023/06/01 05:07:28;0.00;0.00;0.62;0.00;0.00;0.62;2.87;2.30;;;26.70;23.20;;;;;;2260040;61;20353;-67
2023/06/01 05:10:13;0.00;0.00;0.62;0.00;0.00;0.62;3.00;2.47;;;26.70;23.20;;;;;;2260454;61;20435;-68
2023/06/01 05:13:03;0.00;0.00;0.62;0.00;0.00;0.62;2.40;2.10;;;26.70;23.20;;;;;;2260294;61;20365;-68
2023/06/01 05:15:48;0.00;0.00;0.62;0.00;0.00;0.62;2.70;2.37;;;26.70;23.20;;;;;;2259980;61;20864;-68
2023/06/01 05:18:32;0.00;0.00;0.62;0.00;0.00;0.62;2.77;2.43;;;26.70;23.20;;;;;;2260718;61;20357;-67
2023/06/01 05:21:17;0.00;0.00;0.62;0.00;0.00;0.62;3.93;2.97;;;26.70;23.20;;;;;;2259873;61;20432;-68
2023/06/01 05:24:05;0.00;0.00;0.62;0.00;0.00;0.62;3.80;2.90;;;26.70;23.20;;;;;;2260529;61;20451;-68
2023/06/01 05:26:50;0.00;0.00;0.62;0.00;0.00;0.62;5.50;3.20;;;26.70;23.20;;;;;;2260703;61;20372;-68
2023/06/01 05:29:35;0.00;0.00;0.62;0.00;0.00;0.62;3.50;2.87;;;26.70;23.30;;;;;;2260024;61;20356;-68
2023/06/01 05:32:20;0.00;0.00;0.62;0.00;0.00;0.62;6.40;3.80;;;26.60;23.10;;;;;;2260042;61;20381;-67
2023/06/01 05:35:06;0.00;0.00;0.62;0.00;0.00;0.62;4.60;2.93;;;26.70;23.20;;;;;;2260439;61;20407;-68
2023/06/01 05:37:53;0.00;0.00;0.62;0.00;0.00;0.62;5.80;3.50;;;26.70;23.20;;;;;;2259944;61;20416;-68
2023/06/01 05:40:40;0.00;0.00;0.62;0.00;0.00;0.62;3.83;3.17;;;26.70;23.20;;;;;;2259966;61;20726;-68
2023/06/01 05:43:24;0.00;0.00;0.62;0.00;0.00;0.62;3.50;3.10;;;26.60;23.10;;;;;;2260271;61;20409;-70
2023/06/01 05:46:10;0.00;0.00;0.62;0.00;0.00;0.62;4.63;3.10;;;26.70;23.20;;;;;;2259856;61;21204;-68
2023/06/01 05:48:56;0.00;0.00;0.62;0.00;0.00;0.62;3.60;3.03;;;26.60;23.10;;;;;;2260098;61;20777;-68
2023/06/01 05:51:42;0.00;0.00;0.62;0.00;0.00;0.62;4.53;3.17;;;26.60;23.10;;;;;;2259596;61;20389;-68
2023/06/01 05:54:27;0.00;0.00;0.62;0.00;0.00;0.62;3.30;2.87;;;26.60;23.10;;;;;;2260151;61;20448;-70
2023/06/01 05:57:13;0.00;0.00;0.62;0.00;0.00;0.62;3.90;3.07;;;26.60;23.10;;;;;;2260020;61;20484;-67
2023/06/01 05:59:58;0.00;0.00;0.62;0.00;0.00;0.62;3.90;2.97;;;26.60;23.10;;;;;;2260133;61;20842;-69
2023/06/01 06:02:43;0.00;0.00;0.62;0.00;0.00;0.62;4.90;3.53;;;26.60;23.10;;;;;;2259814;61;20365;-68
2023/06/01 06:05:28;0.00;0.00;0.62;0.00;0.00;0.62;3.53;2.87;;;26.60;23.10;;;;;;2260554;61;20481;-69
2023/06/01 06:08:13;0.00;0.00;0.62;0.00;0.00;0.62;3.60;2.87;;;26.60;23.70;;;;;;2260224;61;20372;-68
2023/06/01 06:10:57;0.00;0.00;0.62;0.00;0.00;0.62;3.60;2.57;;;26.60;23.10;;;;;;2260378;61;20383;-69
2023/06/01 06:13:43;0.00;0.00;0.62;0.00;0.00;0.62;3.40;3.07;;;26.60;23.10;;;;;;2260557;61;20360;-68
2023/06/01 06:16:27;0.00;0.00;0.62;0.00;0.00;0.62;3.70;3.30;;;26.60;23.10;;;;;;2260525;61;20587;-68
2023/06/01 06:19:12;0.00;0.00;0.62;0.00;0.00;0.62;4.67;3.70;;;26.60;23.10;;;;;;2260413;61;20446;-68
2023/06/01 06:21:56;0.00;0.00;0.62;0.00;0.00;0.62;3.50;2.90;;;26.60;23.10;;;;;;2259936;61;20384;-69
2023/06/01 06:24:42;0.00;0.00;0.62;0.00;0.00;0.62;3.53;2.83;;;26.60;23.10;;;;;;2260437;61;20457;-68
2023/06/01 06:27:27;0.00;0.00;0.62;0.00;0.00;0.62;3.33;3.03;;;26.60;23.10;;;;;;2260506;61;20461;-69
2023/06/01 06:30:13;0.00;0.00;0.62;0.00;0.00;0.62;4.27;3.60;;;26.60;23.10;;;;;;2260093;61;20365;-69
2023/06/01 06:32:58;0.00;0.00;0.62;0.00;0.00;0.62;3.60;3.30;;;26.60;23.10;;;;;;2260451;61;20924;-69
2023/06/01 06:35:43;0.00;0.00;0.62;0.00;0.00;0.62;6.70;3.77;;;26.60;23.10;;;;;;2260413;61;20376;-67
2023/06/01 06:38:28;0.00;0.00;0.62;0.00;0.00;0.62;4.20;3.80;;;26.60;23.10;;;;;;2260605;61;20373;-68
2023/06/01 06:41:13;0.00;0.00;0.62;0.00;0.00;0.62;3.53;3.13;;;26.60;23.70;;;;;;2259975;61;20377;-69
2023/06/01 06:43:58;0.00;0.00;0.62;0.00;0.00;0.62;5.00;4.33;;;26.60;23.10;;;;;;2260410;61;20416;-68
2023/06/01 06:46:44;0.00;0.00;0.62;0.00;0.00;0.62;3.90;3.50;;;26.60;23.10;;;;;;2260581;61;20353;-68
2023/06/01 06:49:29;0.00;0.00;0.62;0.00;0.00;0.62;4.87;3.97;;;26.50;23.60;;;;;;2260384;61;20449;-67
2023/06/01 06:52:14;0.00;0.00;0.62;0.00;0.00;0.62;4.90;3.70;;;26.60;23.20;;;;;;2259754;61;20377;-68
2023/06/01 06:54:59;0.00;0.00;0.62;0.00;0.00;0.62;4.23;3.83;;;26.60;23.20;;;;;;2260396;61;20496;-68
2023/06/01 06:57:44;0.00;0.00;0.62;0.00;0.00;0.62;4.47;4.07;;;26.60;23.20;;;;;;2260314;61;20944;-67
2023/06/01 07:00:30;0.00;0.00;0.62;0.00;0.00;0.62;5.07;4.20;;;26.50;23.10;;;;;;2259548;61;20408;-68
2023/06/01 07:03:16;0.00;0.00;0.62;0.00;0.00;0.62;5.30;4.80;;;26.50;23.20;;;;;;2260341;61;20403;-68
2023/06/01 07:06:01;0.00;0.00;0.62;0.00;0.00;0.62;5.37;4.87;;;26.60;23.20;;;;;;2260315;61;20945;-68
2023/06/01 07:08:46;0.00;0.00;0.62;0.00;0.00;0.62;5.97;5.37;;;26.60;23.20;;;;;;2260447;61;20356;-69
2023/06/01 07:11:30;0.00;0.00;0.62;0.00;0.00;0.62;6.20;5.60;;;26.60;23.20;;;;;;2259814;61;20381;-68
2023/06/01 07:14:15;0.00;0.00;0.62;0.00;0.00;0.62;6.73;4.93;;;26.60;23.20;;;;;;2259991;61;20396;-68
2023/06/01 07:17:00;0.00;0.00;0.62;0.00;0.00;0.62;6.47;5.87;;;26.60;23.20;;;;;;2260342;61;20385;-69
2023/06/01 07:19:46;0.00;0.00;0.62;0.00;0.00;0.62;5.93;5.27;;;26.50;23.20;;;;;;2260331;61;20493;-68
2023/06/01 07:22:31;0.00;0.00;0.62;0.00;0.00;0.62;6.10;5.30;;;26.50;23.20;;;;;;2260051;61;20385;-67
2023/06/01 07:25:16;0.00;0.00;0.62;0.00;0.00;0.62;7.23;5.50;;;26.60;23.30;;;;;;2260533;61;20389;-68
2023/06/01 07:28:06;0.00;0.00;0.62;0.00;0.00;0.62;6.70;6.00;;;26.50;23.70;;;;;;2260035;61;20360;-68
2023/06/01 07:30:51;0.00;0.00;0.62;0.00;0.00;0.62;7.20;6.33;;;26.60;23.30;;;;;;2259982;61;20421;-68
2023/06/01 07:33:37;0.00;0.00;0.62;0.00;0.00;0.62;7.30;6.60;;;26.50;23.20;;;;;;2260300;61;20685;-67
2023/06/01 07:36:23;0.00;0.00;0.62;0.00;0.00;0.62;7.17;6.57;;;26.60;23.30;;;;;;2260079;61;20381;-68
2023/06/01 07:39:08;0.00;0.00;0.62;0.00;0.00;0.62;7.23;6.47;;;26.50;23.30;;;;;;2260414;61;20372;-67
2023/06/01 07:41:53;0.00;0.00;0.62;0.00;0.00;0.62;7.73;7.00;;;26.50;23.30;;;;;;2259989;61;20830;-68
2023/06/01 07:44:38;0.00;0.00;0.62;0.00;0.00;0.62;6.80;6.10;;;26.50;23.20;;;;;;2260061;61;20432;-67
2023/06/01 07:47:25;0.00;0.00;0.62;0.00;0.00;0.62;7.37;6.70;;;26.50;23.30;;;;;;2260189;61;20357;-68
2023/06/01 07:50:10;0.00;0.00;0.62;0.00;0.00;0.62;8.67;7.43;;;26.50;23.20;;;;;;2260017;61;20360;-67
2023/06/01 07:52:56;0.00;0.00;0.62;0.00;0.00;0.62;6.70;6.10;;;26.50;23.20;;;;;;2260164;61;20357;-68
2023/06/01 07:55:41;0.00;0.00;0.62;0.00;0.00;0.62;7.10;6.40;;;26.50;23.20;;;;;;2260108;61;20920;-68
2023/06/01 07:58:25;0.00;0.00;0.62;0.00;0.00;0.62;6.60;6.00;;;26.50;23.20;;;;;;2260610;61;20867;-69
2023/06/01 08:01:10;0.00;0.00;0.62;0.00;0.00;0.62;7.00;6.30;;;26.50;23.30;;;;;;2259956;61;20376;-68
2023/06/01 08:03:59;0.00;0.00;0.62;0.00;0.00;0.62;7.43;6.63;;;26.50;23.30;;;;;;2260857;61;20376;-68
2023/06/01 08:06:44;0.00;0.00;0.62;0.00;0.00;0.62;6.60;6.00;;;26.50;23.80;;;;;;2260794;61;20388;-68
2023/06/01 08:09:30;0.00;0.00;0.62;0.00;0.00;0.62;5.93;5.33;;;26.50;23.30;;;;;;2261138;61;20403;-68
2023/06/01 08:12:15;0.00;0.00;0.62;0.00;0.00;0.62;6.93;6.23;;;26.50;23.30;;;;;;2260523;61;20435;-67
2023/06/01 08:15:01;0.00;0.00;0.62;0.00;0.00;0.62;6.07;5.47;;;26.50;23.30;;;;;;2260907;61;20415;-68
2023/06/01 08:17:46;0.00;0.00;0.62;0.00;0.00;0.62;5.90;5.10;;;26.50;23.30;;;;;;2260950;61;20499;-68
2023/06/01 08:20:30;0.00;0.00;0.62;0.00;0.00;0.62;4.90;4.20;;;26.50;23.30;;;;;;2260027;61;20356;-68
2023/06/01 08:23:18;0.00;0.00;0.62;0.00;0.00;0.62;5.40;4.83;;;26.50;23.30;;;;;;2260953;61;20356;-69
2023/06/01 08:26:04;0.00;0.00;0.62;0.00;0.00;0.62;5.70;4.97;;;26.50;23.30;;;;;;2260935;61;20403;-68
2023/06/01 08:28:52;0.00;0.00;0.62;0.00;0.00;0.62;8.77;5.50;;;26.50;23.30;;;;;;2260300;61;20387;-68
2023/06/01 08:31:38;0.00;0.00;0.62;0.00;0.00;0.62;6.47;4.97;;;26.50;23.30;;;;;;2260501;61;20856;-68
2023/06/01 08:34:22;0.00;0.00;0.62;0.00;0.00;0.62;4.57;4.17;;;26.50;23.30;;;;;;2260876;61;20364;-68
2023/06/01 08:37:07;0.00;0.00;0.62;0.00;0.00;0.62;5.27;4.60;;;26.50;23.30;;;;;;2260699;61;20485;-68
2023/06/01 08:39:51;0.00;0.00;0.62;0.00;0.00;0.62;7.80;4.73;;;26.50;23.30;;;;;;2260868;61;20361;-69
2023/06/01 08:42:46;0.00;0.00;0.62;0.00;0.00;0.62;5.40;4.67;;;26.50;23.30;;;;;;2260694;61;20780;-68
2023/06/01 08:45:32;0.00;0.00;0.62;0.00;0.00;0.62;5.93;4.50;;;26.50;23.40;;;;;;2260771;61;20365;-68
2023/06/01 08:48:19;0.00;0.00;0.62;0.00;0.00;0.62;4.33;3.60;;;26.50;23.30;;;;;;2260642;61;20892;-68
2023/06/01 08:51:04;0.00;0.00;0.62;0.00;0.00;0.62;3.97;3.57;;;26.50;23.30;;;;;;2259963;61;20400;-69
2023/06/01 08:53:50;0.00;0.00;0.62;0.00;0.00;0.62;4.00;3.63;;;26.50;23.40;;;;;;2260637;61;20949;-68
2023/06/01 08:56:35;0.00;0.00;0.62;0.00;0.00;0.62;4.27;3.57;;;26.50;23.40;;;;;;2260634;61;20806;-68
2023/06/01 08:59:21;0.00;0.00;0.62;0.00;0.00;0.62;4.53;3.73;;;26.50;23.40;;;;;;2260444;61;20361;-67
2023/06/01 09:02:06;0.00;0.00;0.62;0.00;0.00;0.62;5.90;3.70;;;26.50;23.40;;;;;;2260502;61;20388;-68
2023/06/01 09:04:52;0.00;0.00;0.62;0.00;0.00;0.62;3.90;3.50;;;26.50;23.40;;;;;;2260055;61;20767;-68
2023/06/01 09:07:37;0.00;0.00;0.62;0.00;0.00;0.62;4.67;3.37;;;26.50;23.40;;;;;;2260813;61;20377;-68
2023/06/01 09:10:25;0.00;0.00;0.62;0.00;0.00;0.62;4.23;3.33;;;26.50;23.40;;;;;;2256950;61;20840;-68
2023/06/01 09:13:10;0.00;0.00;0.62;0.00;0.00;0.62;4.23;3.60;;;26.50;23.40;;;;;;2260581;61;20423;-68
2023/06/01 09:15:56;0.00;0.00;0.62;0.00;0.00;0.62;3.90;3.50;;;26.50;23.40;;;;;;2260532;61;20409;-67
2023/06/01 09:18:52;0.00;0.00;0.62;0.00;0.00;0.62;3.17;2.87;;;26.50;23.40;;;;;;2260732;61;20815;-67
2023/06/01 09:21:37;0.00;0.00;0.62;0.00;0.00;0.62;3.33;3.03;;;26.50;23.40;;;;;;2260278;61;20679;-67
2023/06/01 09:24:22;0.00;0.00;0.62;0.00;0.00;0.62;4.27;2.70;;;26.50;23.40;;;;;;2260721;61;20373;-68
2023/06/01 09:27:07;0.00;0.00;0.62;0.00;0.00;0.62;3.63;2.80;;;26.50;23.40;;;;;;2260365;61;20442;-68
2023/06/01 09:29:59;0.00;0.00;0.62;0.00;0.00;0.62;2.67;2.40;;;26.50;23.40;;;;;;2260880;61;20360;-68
2023/06/01 09:32:48;0.00;0.00;0.62;0.00;0.00;0.62;2.93;2.63;;;26.50;23.40;;;;;;2260612;61;20375;-72
2023/06/01 09:35:44;0.00;0.00;0.62;0.00;0.00;0.62;3.03;2.70;;;26.50;24.00;;;;;;2260397;61;20446;-68
2023/06/01 09:38:30;0.00;0.00;0.62;0.00;0.00;0.62;3.53;2.70;;;26.50;23.40;;;;;;2260524;61;20550;-69
2023/06/01 09:41:15;0.00;0.00;0.62;0.00;0.00;0.62;2.80;2.40;;;26.50;23.40;;;;;;2259998;61;20381;-70
2023/06/01 09:44:00;0.00;0.00;0.62;0.00;0.00;0.62;3.10;2.70;;;26.50;23.40;;;;;;2260819;61;20360;-67
2023/06/01 09:46:50;0.00;0.00;0.62;0.00;0.00;0.62;2.77;2.50;;;26.50;23.50;;;;;;2260744;61;20356;-67
2023/06/01 09:49:38;0.00;0.00;0.62;0.00;0.00;0.62;4.00;2.20;;;26.50;23.50;;;;;;2260459;61;20411;-67
2023/06/01 09:52:23;0.00;0.00;0.62;0.00;0.00;0.62;3.50;2.40;;;26.40;23.40;;;;;;2260454;61;20389;-67
2023/06/01 09:55:09;0.00;0.00;0.62;0.00;0.00;0.62;2.70;2.20;;;26.50;23.50;;;;;;2260582;61;20444;-68
2023/06/01 09:58:17;0.00;0.00;0.62;0.00;0.00;0.62;2.73;2.00;;;26.50;23.50;;;;;;2260346;61;20422;-68
2023/06/01 10:01:04;0.00;0.00;0.62;0.00;0.00;0.62;2.60;2.30;;;26.50;23.50;;;;;;2260233;61;20444;-69
2023/06/01 10:03:53;0.00;0.00;0.62;0.00;0.00;0.62;3.53;2.30;;;26.50;23.50;;;;;;2260473;61;20357;-68
2023/06/01 10:06:40;0.00;0.00;0.62;0.00;0.00;0.62;2.90;2.20;;;26.40;23.80;;;;;;2260441;61;20337;-67
2023/06/01 10:09:26;0.00;0.00;0.62;0.00;0.00;0.62;3.07;1.70;;;26.50;23.50;;;;;;2260614;61;20816;-68
2023/06/01 10:12:11;0.00;0.00;0.62;0.00;0.00;0.62;2.90;2.47;;;26.50;23.50;;;;;;2259945;61;20459;-68
2023/06/01 10:14:57;0.00;0.00;0.62;0.00;0.00;0.62;2.37;1.83;;;26.50;23.50;;;;;;2260658;61;20451;-70
2023/06/01 10:17:43;0.00;0.00;0.62;0.00;0.00;0.62;2.40;2.00;;;26.50;23.50;;;;;;2260488;61;20948;-67
2023/06/01 10:20:32;0.00;0.00;0.62;0.00;0.00;0.62;2.23;1.77;;;26.50;23.50;;;;;;2259868;61;20896;-67
2023/06/01 10:23:20;0.00;0.00;0.62;0.00;0.00;0.62;2.27;1.60;;;26.50;23.50;;;;;;2260330;61;20819;-69
2023/06/01 10:26:12;0.00;0.00;0.62;0.00;0.00;0.62;2.97;2.20;;;26.50;23.50;;;;;;2260304;61;20464;-69
2023/06/01 10:28:57;0.00;0.00;0.62;0.00;0.00;0.62;2.10;1.70;;;26.50;23.50;;;;;;2260517;61;20856;-68
2023/06/01 10:31:43;0.00;0.00;0.62;0.00;0.00;0.62;2.37;1.70;;;26.50;23.50;;;;;;2260123;61;20407;-68
2023/06/01 10:34:39;0.00;0.00;0.62;0.00;0.00;0.62;2.17;1.87;;;26.50;23.50;;;;;;2260187;61;20423;-68
2023/06/01 10:37:24;0.00;0.00;0.62;0.00;0.00;0.62;2.13;1.70;;;26.50;23.50;;;;;;2260407;61;20385;-68
2023/06/01 10:40:22;0.00;0.00;0.62;0.00;0.00;0.62;2.47;1.80;;;26.50;23.50;;;;;;2260231;61;20936;-67
2023/06/01 10:43:08;0.00;0.00;0.62;0.00;0.00;0.62;2.60;2.07;;;26.50;23.50;;;;;;2260384;61;20429;-68
2023/06/01 10:45:53;0.00;0.00;0.62;0.00;0.00;0.62;2.37;1.40;;;26.50;23.50;;;;;;2260296;61;20393;-68
2023/06/01 10:48:57;0.00;0.00;0.62;0.00;0.00;0.62;2.23;1.77;;;26.50;23.60;;;;;;2260353;61;20430;-70
2023/06/01 10:51:42;0.00;0.00;0.62;0.00;0.00;0.62;2.30;1.80;;;26.50;23.60;;;;;;2260116;61;20399;-69
2023/06/01 10:54:30;0.00;0.00;0.62;0.00;0.00;0.62;2.50;2.00;;;26.50;23.60;;;;;;2260448;61;20369;-68
2023/06/01 10:57:24;0.00;0.00;0.62;0.00;0.00;0.62;2.20;1.63;;;26.50;23.60;;;;;;2260284;61;20619;-68
2023/06/01 11:00:16;0.00;0.00;0.62;0.00;0.00;0.62;3.40;2.07;;;26.50;23.60;;;;;;2260185;61;20387;-68